This is the latest recevied weather packets stored in our database for station/object W9QL-13. If no packets are shown the sender has not sent any weather packets the latest 10 day(s).
| Time | Temp. | Humidity | Pressure | Rain* | Wind** | Luminosity | Snow |
|---|---|---|---|---|---|---|---|
| 1778087768 | 13.33° C | 37% | 1012.2 hPa | 0 mm | - | - | - |
| 1778087438 | 13.33° C | 37% | 1012.4 hPa | 0 mm | - | - | - |
| 1778087108 | 13.33° C | 36% | 1012.5 hPa | 0 mm | - | - | - |
| 1778086808 | 13.89° C | 37% | 1012.5 hPa | 0 mm | - | - | - |
| 1778086478 | 14.44° C | 34% | 1012.5 hPa | 0 mm | - | - | - |
| 1778086177 | 15° C | 36% | 1012.4 hPa | 0 mm | - | - | - |
| 1778085877 | 15° C | 32% | 1012.5 hPa | 0 mm | - | - | - |
| 1778085577 | 15° C | 35% | 1012.4 hPa | 0 mm | - | - | - |
| 1778085277 | 15° C | 36% | 1012.4 hPa | 0 mm | - | - | - |
| 1778084977 | 15° C | 35% | 1012.3 hPa | 0 mm | - | - | - |
| 1778084677 | 14.44° C | 37% | 1012.4 hPa | 0 mm | - | - | - |
| 1778084377 | 13.89° C | 36% | 1012.4 hPa | 0 mm | - | - | - |
| 1778084047 | 13.89° C | 35% | 1012.5 hPa | 0 mm | - | - | - |
| 1778083717 | 12.78° C | 43% | 1012.5 hPa | 0 mm | - | - | - |
| 1778083417 | 12.78° C | 40% | 1012.5 hPa | 0 mm | - | - | - |
| 1778083087 | 12.78° C | 40% | 1012.5 hPa | 0 mm | - | - | - |
| 1778082757 | 12.78° C | 39% | 1012.5 hPa | 0 mm | - | - | - |
| 1778082427 | 12.22° C | 43% | 1012.5 hPa | 0 mm | - | - | - |
| 1778082127 | 11.67° C | 45% | 1012.6 hPa | 7.62 mm | - | - | - |
| 1778081827 | 12.22° C | 43% | 1012.5 hPa | 7.62 mm | - | - | - |
| 1778081527 | 12.78° C | 42% | 1012.5 hPa | 7.62 mm | - | - | - |
| 1778081227 | 12.78° C | 42% | 1012.5 hPa | 7.62 mm | - | - | - |
| 1778080927 | 13.33° C | 43% | 1012.6 hPa | 7.62 mm | - | - | - |
| 1778080627 | 12.78° C | 43% | 1012.6 hPa | 7.62 mm | - | - | - |
| 1778080297 | 12.78° C | 44% | 1012.7 hPa | 7.62 mm | - | - | - |
* Rain latest hour (hover to see other rain measurements)
** Current wind speed in m/s (hover to see current wind gust speed)